Time;durP1;ratioP1;P1;durP2;ratioP2;P2;SDS_P1;SDS_P2;PMS_P1;PMS_P2;Temp;Humidity;BMP_temperature;BMP_pressure;BME280_temperature;BME280_humidity;BME280_pressure;Samples;Min_cycle;Max_cycle;Signal;HPM_P1;HPM_P2
2021/06/18 00:00:18;;;;;;;5.13;3.80;;;;;;;19.25;68.71;98443.16;5006517;28;20064;-71
2021/06/18 00:02:44;;;;;;;4.00;3.30;;;;;;;19.33;67.51;98445.38;5010669;28;20049;-71
2021/06/18 00:05:10;;;;;;;5.95;3.63;;;;;;;19.49;66.43;98443.50;5011475;28;20022;-71
2021/06/18 00:07:36;;;;;;;4.50;3.53;;;;;;;19.46;66.01;98439.38;5012569;28;20033;-71
2021/06/18 00:10:07;;;;;;;5.55;3.60;;;;;;;19.43;66.35;98439.91;5010831;28;20025;-71
2021/06/18 00:12:32;;;;;;;5.50;3.75;;;;;;;19.54;66.21;98440.75;5010196;28;20136;-71
2021/06/18 00:14:59;;;;;;;4.43;3.58;;;;;;;19.47;66.33;98440.22;5012504;28;20038;-71
2021/06/18 00:17:28;;;;;;;6.03;3.50;;;;;;;19.27;66.94;98440.97;5011648;28;20042;-71
2021/06/18 00:19:53;;;;;;;4.50;3.60;;;;;;;19.24;67.06;98439.59;5022197;28;20586;-70
2021/06/18 00:22:19;;;;;;;6.78;3.70;;;;;;;19.19;67.57;98434.09;5012492;28;20174;-71
2021/06/18 00:24:45;;;;;;;4.97;3.70;;;;;;;19.11;67.64;98436.53;5011627;28;20038;-71
2021/06/18 00:27:10;;;;;;;6.28;3.83;;;;;;;18.99;67.58;98432.09;5011706;28;20059;-71
2021/06/18 00:29:35;;;;;;;6.05;3.80;;;;;;;18.86;67.99;98423.50;5011121;28;20034;-71
2021/06/18 00:32:01;;;;;;;5.43;3.83;;;;;;;18.70;67.47;98428.06;5011874;28;20046;-71
2021/06/18 00:34:26;;;;;;;6.97;3.50;;;;;;;18.64;67.78;98423.66;5011225;28;20072;-71
2021/06/18 00:36:51;;;;;;;6.15;3.70;;;;;;;18.61;68.21;98423.09;5011650;28;20112;-71
2021/06/18 00:39:16;;;;;;;6.90;3.70;;;;;;;18.64;68.38;98420.91;5010689;28;20072;-71
2021/06/18 00:41:42;;;;;;;5.30;4.18;;;;;;;18.67;68.07;98418.47;5010003;28;20026;-71
2021/06/18 00:44:07;;;;;;;6.03;4.10;;;;;;;18.54;68.19;98414.25;5010912;28;20037;-71
2021/06/18 00:46:32;;;;;;;7.22;4.20;;;;;;;18.57;68.09;98419.22;5010099;28;20052;-71
2021/06/18 00:48:58;;;;;;;6.47;4.20;;;;;;;18.56;67.42;98414.84;5011559;28;20030;-71
2021/06/18 00:51:24;;;;;;;5.82;3.97;;;;;;;18.62;67.07;98416.50;5010889;28;20030;-71
2021/06/18 00:53:50;;;;;;;7.78;4.43;;;;;;;18.60;67.69;98421.44;5011529;28;20073;-71
2021/06/18 00:56:15;;;;;;;5.90;3.65;;;;;;;18.65;67.84;98425.28;5011220;28;20053;-71
2021/06/18 00:58:41;;;;;;;5.93;3.78;;;;;;;18.60;69.40;98426.94;5009683;28;20069;-71
2021/06/18 01:01:06;;;;;;;6.00;3.45;;;;;;;18.49;69.51;98425.19;4998779;28;20112;-71
2021/06/18 01:03:31;;;;;;;8.52;3.78;;;;;;;18.27;70.22;98432.72;5011678;28;20448;-71
2021/06/18 01:05:57;;;;;;;8.80;3.65;;;;;;;18.13;71.17;98444.13;5011054;28;20559;-71
2021/06/18 01:08:39;;;;;;;4.47;3.45;;;;;;;18.00;71.51;98444.56;5010212;28;20590;-71
2021/06/18 01:11:16;;;;;;;8.27;3.85;;;;;;;17.93;71.75;98454.88;5008967;28;20416;-71
2021/06/18 01:14:02;;;;;;;7.15;3.85;;;;;;;17.85;71.75;98450.72;5011056;28;20042;-71
2021/06/18 01:16:34;;;;;;;7.07;3.90;;;;;;;17.96;71.29;98454.38;5007086;28;20049;-71
2021/06/18 01:19:21;;;;;;;7.35;4.18;;;;;;;18.12;71.10;98458.88;5011157;28;20550;-71
2021/06/18 01:21:58;;;;;;;5.60;4.20;;;;;;;18.14;71.37;98459.44;5010400;28;20812;-71
2021/06/18 01:24:46;;;;;;;8.07;3.53;;;;;;;18.10;71.41;98454.75;5009403;28;20026;-71
2021/06/18 01:27:16;;;;;;;7.47;3.33;;;;;;;18.14;70.98;98461.38;5012177;28;20026;-71
2021/06/18 01:29:51;;;;;;;10.07;3.83;;;;;;;18.17;70.97;98467.13;5011487;28;20038;-72
2021/06/18 01:32:22;;;;;;;5.53;3.83;;;;;;;18.22;70.97;98462.81;5008083;28;20883;-71
2021/06/18 01:34:50;;;;;;;4.50;3.75;;;;;;;18.15;70.84;98449.31;5009967;28;20667;-72
2021/06/18 01:37:19;;;;;;;8.38;4.07;;;;;;;18.14;71.60;98467.66;5009166;28;20419;-71
2021/06/18 01:39:46;;;;;;;;;;;;;;;18.10;72.28;98472.03;4994948;28;20095;-71
2021/06/18 01:42:12;;;;;;;6.88;4.20;;;;;;;18.01;72.41;98465.38;5009270;28;19913;-71
2021/06/18 01:44:39;;;;;;;5.78;4.20;;;;;;;18.08;72.18;98467.91;5012726;28;20049;-71
2021/06/18 01:47:07;;;;;;;4.93;3.80;;;;;;;18.01;72.23;98462.63;5011340;28;20033;-71
2021/06/18 01:49:37;;;;;;;6.97;4.38;;;;;;;18.00;72.54;98468.34;5012838;28;20026;-71
2021/06/18 01:52:07;;;;;;;5.05;4.20;;;;;;;17.86;72.87;98462.47;5012554;28;20091;-71
2021/06/18 01:54:35;;;;;;;5.18;3.85;;;;;;;17.80;72.43;98471.72;5003939;28;20034;-72
2021/06/18 01:57:02;;;;;;;4.88;4.07;;;;;;;17.81;73.34;98473.38;5010531;28;20021;-71
2021/06/18 01:59:31;;;;;;;6.63;3.83;;;;;;;17.77;73.58;98474.97;5011743;28;20041;-71
2021/06/18 02:01:59;;;;;;;5.65;4.30;;;;;;;18.00;72.80;98471.94;5012414;28;20025;-71
2021/06/18 02:04:25;;;;;;;5.13;4.00;;;;;;;18.08;72.30;98476.13;5007700;28;20073;-71
2021/06/18 02:06:53;;;;;;;10.75;4.43;;;;;;;18.00;72.02;98469.19;4992074;28;20034;-71
2021/06/18 02:09:22;;;;;;;5.45;3.92;;;;;;;17.85;72.05;98469.88;4998882;28;20049;-71
2021/06/18 02:11:48;;;;;;;4.80;3.88;;;;;;;17.76;72.09;98465.91;5010122;28;20482;-71
2021/06/18 02:14:17;;;;;;;6.03;3.85;;;;;;;17.68;72.68;98467.22;5010590;28;20046;-71
2021/06/18 02:16:48;;;;;;;6.55;3.83;;;;;;;17.65;73.44;98464.16;5010897;28;20021;-71
2021/06/18 02:19:15;;;;;;;5.50;3.83;;;;;;;17.54;73.74;98465.97;5010547;28;20541;-71
2021/06/18 02:21:43;;;;;;;6.43;4.10;;;;;;;17.46;73.43;98466.41;5004481;28;20033;-71
2021/06/18 02:24:09;;;;;;;5.95;4.13;;;;;;;17.58;72.37;98461.63;5010341;28;20756;-71
2021/06/18 02:26:35;;;;;;;6.35;3.95;;;;;;;17.60;72.19;98455.91;5009833;28;20475;-71
2021/06/18 02:29:00;;;;;;;4.72;3.72;;;;;;;17.58;71.69;98460.78;5009625;28;20036;-70
2021/06/18 02:31:28;;;;;;;5.22;3.75;;;;;;;17.46;71.90;98461.75;5010174;28;20052;-71
2021/06/18 02:33:53;;;;;;;5.20;3.88;;;;;;;17.42;71.67;98463.38;5010634;28;20025;-71
2021/06/18 02:36:20;;;;;;;6.55;4.00;;;;;;;17.31;71.93;98458.84;5010404;28;20435;-71
2021/06/18 02:38:47;;;;;;;9.40;4.00;;;;;;;17.06;73.04;98432.06;5010580;28;20117;-71
2021/06/18 02:41:13;;;;;;;4.45;3.67;;;;;;;17.05;73.06;98450.34;5009531;28;20109;-71
2021/06/18 02:43:38;;;;;;;5.63;3.72;;;;;;;17.19;74.16;98466.38;5010277;28;20048;-70
2021/06/18 02:46:03;;;;;;;5.50;3.80;;;;;;;17.10;72.87;98474.19;5010379;28;20069;-71
2021/06/18 02:48:41;;;;;;;6.78;3.38;;;;;;;17.07;72.31;98452.81;5010503;28;20033;-71
2021/06/18 02:51:24;;;;;;;4.32;3.85;;;;;;;17.06;73.25;98464.84;5009682;28;20223;-70
2021/06/18 02:53:55;;;;;;;4.78;3.60;;;;;;;17.05;73.09;98461.25;5008557;28;20100;-71
2021/06/18 02:56:26;;;;;;;4.80;3.58;;;;;;;17.16;73.57;98455.94;5009805;28;20030;-71
2021/06/18 02:58:56;;;;;;;6.60;4.10;;;;;;;17.17;74.17;98452.97;5010636;28;20088;-71
2021/06/18 03:01:26;;;;;;;5.00;4.25;;;;;;;17.03;74.82;98462.63;5009671;28;20025;-71
2021/06/18 03:03:56;;;;;;;7.75;4.15;;;;;;;16.99;76.21;98458.75;5008540;28;20030;-71
2021/06/18 03:06:22;;;;;;;7.57;5.03;;;;;;;16.81;76.94;98462.59;5009317;28;20116;-71
2021/06/18 03:08:57;;;;;;;7.68;4.82;;;;;;;16.66;77.86;98471.34;5007265;28;20021;-71
2021/06/18 03:11:28;;;;;;;5.93;4.57;;;;;;;16.47;77.91;98453.59;5007995;28;20533;-71
2021/06/18 03:13:55;;;;;;;6.70;4.68;;;;;;;16.53;78.24;98474.44;5008436;28;20029;-71
2021/06/18 03:16:22;;;;;;;7.10;4.50;;;;;;;16.52;78.62;98481.00;5009670;28;20034;-71
2021/06/18 03:18:49;;;;;;;7.22;4.85;;;;;;;16.35;78.61;98467.38;5009920;28;20032;-71
2021/06/18 03:21:15;;;;;;;7.38;4.63;;;;;;;16.31;78.81;98480.66;5009389;28;20072;-70
2021/06/18 03:23:45;;;;;;;8.20;4.85;;;;;;;16.39;78.76;98529.41;5009700;28;20080;-71
2021/06/18 03:26:11;;;;;;;5.65;4.22;;;;;;;16.48;78.33;98535.28;5010130;28;20361;-71
2021/06/18 03:28:38;;;;;;;9.15;4.80;;;;;;;16.48;78.60;98496.22;5008824;28;20034;-71
2021/06/18 03:31:07;;;;;;;5.68;4.55;;;;;;;16.71;77.88;98517.06;5009406;28;20419;-71
2021/06/18 03:33:33;;;;;;;;;;;;;;;16.81;77.11;98526.25;5005175;28;20026;-71
2021/06/18 03:35:59;;;;;;;6.78;4.85;;;;;;;16.78;76.01;98518.56;5009580;28;19928;-71
2021/06/18 03:38:25;;;;;;;6.05;4.35;;;;;;;17.13;74.47;98539.28;5009692;28;20060;-71
2021/06/18 03:40:50;;;;;;;5.07;4.13;;;;;;;17.23;73.78;98546.78;5009150;28;20033;-71
2021/06/18 03:43:16;;;;;;;6.57;4.57;;;;;;;17.14;74.23;98542.84;4996161;28;20022;-71
2021/06/18 03:45:48;;;;;;;5.63;4.22;;;;;;;17.18;73.77;98542.06;4990202;28;20030;-71
2021/06/18 03:48:16;;;;;;;11.10;4.60;;;;;;;17.23;74.01;98542.16;5011753;28;20382;-71
2021/06/18 03:50:42;;;;;;;6.25;4.70;;;;;;;17.22;74.05;98545.97;5019468;28;20547;-71
2021/06/18 03:53:09;;;;;;;5.28;4.10;;;;;;;17.17;73.72;98526.78;5009326;28;20061;-70
2021/06/18 03:55:34;;;;;;;6.72;4.70;;;;;;;17.16;73.77;98516.06;5009675;28;20041;-71
2021/06/18 03:58:03;;;;;;;4.43;3.80;;;;;;;17.33;73.84;98541.47;5010195;28;20034;-71
2021/06/18 04:00:32;;;;;;;6.90;4.63;;;;;;;17.40;73.67;98533.09;5008966;28;20034;-71
2021/06/18 04:02:58;;;;;;;5.55;3.90;;;;;;;17.67;72.71;98538.59;5008253;28;20098;-71
2021/06/18 04:05:26;;;;;;;7.93;4.28;;;;;;;17.59;72.77;98534.41;5008220;28;20048;-70
2021/06/18 04:07:53;;;;;;;8.98;4.43;;;;;;;18.03;72.34;98552.72;5004737;28;20033;-68
2021/06/18 04:10:20;;;;;;;5.75;4.38;;;;;;;18.06;72.30;98554.94;5006797;28;20032;-68
2021/06/18 04:12:48;;;;;;;7.47;4.38;;;;;;;18.02;71.73;98529.97;5005445;28;20116;-67
2021/06/18 04:15:14;;;;;;;8.20;4.70;;;;;;;18.00;71.43;98556.78;5007859;28;20029;-67
2021/06/18 04:17:40;;;;;;;7.03;4.15;;;;;;;17.99;71.67;98549.66;5008470;28;20030;-69
2021/06/18 04:20:07;;;;;;;5.03;3.90;;;;;;;18.36;70.94;98535.22;5010248;28;20065;-65
2021/06/18 04:22:34;;;;;;;6.35;4.63;;;;;;;18.65;69.75;98548.59;5010980;28;20017;-67
2021/06/18 04:25:00;;;;;;;5.05;4.30;;;;;;;18.71;69.41;98539.34;5011525;28;20795;-67
2021/06/18 04:27:25;;;;;;;7.75;4.45;;;;;;;19.02;68.88;98541.22;5011016;28;20022;-68
2021/06/18 04:29:51;;;;;;;12.75;4.50;;;;;;;19.07;68.78;98542.34;5011869;28;20041;-68
2021/06/18 04:32:18;;;;;;;9.93;4.30;;;;;;;19.02;68.40;98540.38;5010624;28;20363;-68
2021/06/18 04:34:43;;;;;;;5.85;4.90;;;;;;;19.07;69.16;98547.81;5010142;28;20036;-68
2021/06/18 04:37:08;;;;;;;11.55;4.60;;;;;;;18.94;68.97;98541.72;5007203;28;20038;-69
2021/06/18 04:39:34;;;;;;;12.32;4.93;;;;;;;18.83;69.57;98531.78;5011587;28;20101;-69
2021/06/18 04:42:01;;;;;;;13.68;5.53;;;;;;;18.86;69.73;98527.69;5009818;28;20373;-71
2021/06/18 04:44:27;;;;;;;9.35;4.97;;;;;;;18.88;69.30;98531.81;5008960;28;20045;-68
2021/06/18 04:46:52;;;;;;;8.18;4.53;;;;;;;19.00;69.18;98531.63;5008270;28;20544;-69
2021/06/18 04:49:18;;;;;;;8.80;5.40;;;;;;;19.00;69.33;98532.44;5008583;28;20402;-70
2021/06/18 04:51:43;;;;;;;8.38;4.97;;;;;;;19.16;68.69;98527.03;5012748;28;20368;-71
2021/06/18 04:54:10;;;;;;;10.20;4.63;;;;;;;19.40;67.97;98541.16;5013154;28;20033;-71
2021/06/18 04:56:38;;;;;;;5.88;4.18;;;;;;;19.67;68.46;98546.50;5003686;28;20038;-70
2021/06/18 04:59:03;;;;;;;7.80;3.92;;;;;;;19.75;69.05;98548.72;5008949;28;20036;-68
2021/06/18 05:01:28;;;;;;;7.55;4.05;;;;;;;19.62;68.54;98550.03;5008239;28;20026;-68
2021/06/18 05:03:54;;;;;;;5.47;3.60;;;;;;;19.79;68.52;98547.09;5009971;28;20030;-69
2021/06/18 05:06:19;;;;;;;8.52;4.65;;;;;;;19.96;68.27;98548.78;5010864;28;20484;-68
2021/06/18 05:08:45;;;;;;;6.97;4.55;;;;;;;20.00;67.81;98545.22;5009505;28;20068;-72
2021/06/18 05:11:10;;;;;;;7.38;4.40;;;;;;;20.25;66.97;98543.63;5010556;28;20487;-70
2021/06/18 05:13:35;;;;;;;7.97;4.47;;;;;;;20.39;67.21;98535.69;5007436;28;20037;-70
2021/06/18 05:16:01;;;;;;;9.02;5.05;;;;;;;20.43;66.30;98550.50;5007592;28;20018;-71
2021/06/18 05:18:26;;;;;;;5.38;4.18;;;;;;;20.52;66.06;98548.88;5009317;28;20061;-70
2021/06/18 05:20:52;;;;;;;6.57;4.43;;;;;;;20.86;64.31;98553.84;5010088;28;20041;-68
2021/06/18 05:23:18;;;;;;;7.93;4.32;;;;;;;20.97;64.25;98552.72;5009605;28;20072;-68
2021/06/18 05:25:43;;;;;;;6.18;4.38;;;;;;;21.30;63.43;98547.69;5010602;28;20353;-67
2021/06/18 05:28:08;;;;;;;6.00;4.07;;;;;;;21.57;63.47;98553.69;5009645;28;20503;-66
2021/06/18 05:30:34;;;;;;;11.00;4.32;;;;;;;21.70;63.58;98523.91;5008309;28;20037;-65
2021/06/18 05:32:59;;;;;;;5.13;4.10;;;;;;;21.94;63.27;98538.63;5008424;28;20033;-66
2021/06/18 05:35:25;;;;;;;12.98;4.68;;;;;;;22.12;61.32;98541.84;5009003;28;20091;-66
2021/06/18 05:37:51;;;;;;;10.73;4.10;;;;;;;22.08;60.94;98538.81;5010286;28;20168;-65
2021/06/18 05:40:16;;;;;;;7.13;4.63;;;;;;;22.38;59.97;98529.56;5009485;28;20041;-66
2021/06/18 05:42:42;;;;;;;8.63;4.15;;;;;;;22.78;59.36;98530.31;5013533;28;20025;-66
2021/06/18 05:45:08;;;;;;;7.25;4.45;;;;;;;23.01;57.87;98536.22;5009282;28;20480;-66
2021/06/18 05:47:33;;;;;;;6.65;4.15;;;;;;;23.23;56.96;98532.94;5010324;28;20033;-66
2021/06/18 05:49:58;;;;;;;5.25;4.03;;;;;;;23.35;56.85;98531.41;5010722;28;20377;-66
2021/06/18 05:52:24;;;;;;;7.18;4.38;;;;;;;23.54;57.61;98531.47;5007633;28;20022;-66
2021/06/18 05:54:49;;;;;;;8.57;4.07;;;;;;;23.72;56.70;98546.47;4992670;28;20103;-67
2021/06/18 05:57:15;;;;;;;10.00;4.95;;;;;;;23.93;56.02;98541.47;5014696;28;20046;-79
2021/06/18 05:59:41;;;;;;;10.27;4.85;;;;;;;24.05;55.84;98519.75;5011488;28;20112;-73
2021/06/18 06:02:06;;;;;;;11.13;4.53;;;;;;;24.36;53.71;98521.22;5006522;28;20080;-77
2021/06/18 06:04:31;;;;;;;10.65;4.78;;;;;;;24.66;53.43;98548.41;5008675;28;20049;-76
2021/06/18 06:06:57;;;;;;;9.63;5.13;;;;;;;25.03;52.27;98546.66;5011291;28;20034;-76
2021/06/18 06:09:22;;;;;;;9.55;4.70;;;;;;;24.95;52.20;98541.84;5010182;28;20038;-76
2021/06/18 06:11:47;;;;;;;5.43;4.00;;;;;;;25.41;51.63;98557.59;5010029;28;20038;-76
2021/06/18 06:14:17;;;;;;;10.70;4.75;;;;;;;25.45;50.78;98522.63;5010427;28;20025;-75
2021/06/18 06:16:43;;;;;;;7.13;4.68;;;;;;;25.56;50.68;98520.47;5009253;28;20451;-75
2021/06/18 06:19:09;;;;;;;5.15;4.60;;;;;;;25.64;50.80;98535.56;5009715;28;20032;-75
2021/06/18 06:21:34;;;;;;;7.50;4.95;;;;;;;26.06;50.31;98558.50;5012146;28;20046;-75
2021/06/18 06:23:59;;;;;;;7.30;4.63;;;;;;;26.20;50.06;98559.31;5013460;28;20136;-75
2021/06/18 06:26:25;;;;;;;5.45;4.60;;;;;;;26.06;49.68;98551.00;5007947;28;20036;-75
2021/06/18 06:28:50;;;;;;;8.93;4.82;;;;;;;25.87;49.74;98551.16;5009810;28;20041;-75
2021/06/18 06:31:16;;;;;;;5.95;4.20;;;;;;;26.49;48.76;98553.38;5010929;28;20034;-75
2021/06/18 06:33:41;;;;;;;9.95;4.60;;;;;;;26.55;48.92;98548.53;5009630;28;20028;-75
2021/06/18 06:36:07;;;;;;;6.93;4.22;;;;;;;26.55;48.37;98523.56;5010290;28;20032;-75
2021/06/18 06:38:32;;;;;;;6.68;4.20;;;;;;;26.76;48.84;98557.19;5007714;28;20117;-75
2021/06/18 06:40:57;;;;;;;5.55;4.28;;;;;;;26.98;47.54;98546.03;5008662;28;20034;-75
2021/06/18 06:43:23;;;;;;;7.93;4.10;;;;;;;27.20;47.31;98544.41;5005860;28;20042;-75
2021/06/18 06:45:49;;;;;;;6.80;4.10;;;;;;;27.68;47.12;98530.50;5006135;28;20415;-75
2021/06/18 06:48:15;;;;;;;6.82;3.88;;;;;;;27.86;46.11;98530.59;5008584;28;20037;-75
2021/06/18 06:50:40;;;;;;;7.47;4.25;;;;;;;28.05;45.53;98521.94;5009032;28;20040;-75
2021/06/18 06:53:07;;;;;;;12.27;4.75;;;;;;;28.36;45.28;98552.41;5007997;28;20030;-75
2021/06/18 06:55:33;;;;;;;6.78;4.22;;;;;;;28.97;44.34;98550.38;5009864;28;20049;-75
2021/06/18 06:57:59;;;;;;;5.70;3.63;;;;;;;29.52;42.68;98548.75;5008914;28;20487;-75
2021/06/18 07:00:24;;;;;;;5.85;3.60;;;;;;;30.08;41.32;98543.88;5009548;28;20048;-75
2021/06/18 07:02:49;;;;;;;6.05;4.28;;;;;;;30.53;40.60;98550.78;5007629;28;20110;-75
2021/06/18 07:05:15;;;;;;;6.82;3.85;;;;;;;31.06;40.05;98542.75;5009327;28;20113;-75
2021/06/18 07:07:40;;;;;;;7.82;4.85;;;;;;;32.30;37.72;98545.22;5007714;28;20113;-75
2021/06/18 07:10:06;;;;;;;10.38;4.80;;;;;;;32.96;36.98;98547.56;5010170;28;20025;-75
2021/06/18 07:12:32;;;;;;;7.85;4.03;;;;;;;33.04;36.69;98540.19;5009059;28;20109;-75
2021/06/18 07:14:58;;;;;;;9.15;4.25;;;;;;;34.64;33.88;98559.31;5006624;28;20121;-75
2021/06/18 07:17:24;;;;;;;8.60;4.15;;;;;;;35.50;32.16;98552.53;5006420;28;20111;-75
2021/06/18 07:19:50;;;;;;;6.03;4.30;;;;;;;36.25;30.99;98540.84;5006333;28;20030;-75
2021/06/18 07:22:19;;;;;;;5.18;3.78;;;;;;;36.35;31.77;98538.16;5008530;28;20025;-75
2021/06/18 07:24:44;;;;;;;9.18;4.15;;;;;;;36.36;31.03;98542.59;5009574;28;20026;-75
2021/06/18 07:27:10;;;;;;;6.47;3.70;;;;;;;37.02;30.77;98548.66;5005590;28;20037;-76
2021/06/18 07:29:35;;;;;;;10.52;3.88;;;;;;;38.51;27.81;98524.03;5006931;28;20081;-75
2021/06/18 07:32:01;;;;;;;8.50;3.60;;;;;;;36.29;30.81;98538.84;5006371;28;20027;-75
2021/06/18 07:34:26;;;;;;;4.22;3.47;;;;;;;37.78;28.84;98535.25;5008394;28;20088;-75
2021/06/18 07:36:51;;;;;;;5.63;3.13;;;;;;;38.06;28.87;98538.31;5007392;28;20535;-75
2021/06/18 07:39:17;;;;;;;3.53;3.00;;;;;;;39.36;26.80;98539.66;5004535;28;20041;-75
2021/06/18 07:41:42;;;;;;;3.55;3.00;;;;;;;39.11;27.10;98534.75;5006793;28;20025;-75
2021/06/18 07:44:08;;;;;;;8.18;4.05;;;;;;;37.39;29.03;98522.44;5002837;28;20068;-73
2021/06/18 07:46:33;;;;;;;9.15;3.28;;;;;;;37.71;28.52;98533.22;5000653;28;20552;-76
2021/06/18 07:48:58;;;;;;;5.97;3.20;;;;;;;38.09;28.81;98516.94;5007167;28;20112;-76
2021/06/18 07:51:24;;;;;;;5.05;3.20;;;;;;;39.96;26.58;98516.19;5000680;28;20040;-75
2021/06/18 07:53:49;;;;;;;8.25;3.50;;;;;;;39.88;26.47;98526.72;5008476;28;20038;-76
2021/06/18 07:56:22;;;;;;;5.80;3.42;;;;;;;39.95;27.05;98531.56;5010434;28;20034;-76
2021/06/18 07:58:48;;;;;;;4.72;3.10;;;;;;;40.30;26.21;98525.03;5012616;28;20083;-75
2021/06/18 08:01:14;;;;;;;5.63;3.45;;;;;;;39.96;26.13;98516.19;5008917;28;20041;-75
2021/06/18 08:03:39;;;;;;;6.70;3.47;;;;;;;39.65;27.37;98526.31;5010949;28;20022;-73
2021/06/18 08:06:05;;;;;;;5.63;3.53;;;;;;;39.74;26.76;98521.03;5009649;28;20452;-74
2021/06/18 08:08:30;;;;;;;6.17;4.40;;;;;;;40.28;26.02;98521.78;5007834;28;20391;-76
2021/06/18 08:10:55;;;;;;;6.47;3.35;;;;;;;41.24;25.07;98530.25;5010132;28;20284;-75
2021/06/18 08:13:21;;;;;;;6.25;3.45;;;;;;;41.04;26.23;98527.13;5012059;28;20026;-75
2021/06/18 08:15:46;;;;;;;4.78;3.20;;;;;;;41.62;25.18;98507.69;5009569;28;20030;-75
2021/06/18 08:18:11;;;;;;;4.72;3.40;;;;;;;43.24;22.89;98521.63;5012362;28;20036;-71
2021/06/18 08:20:36;;;;;;;7.03;3.45;;;;;;;41.70;24.39;98520.59;5011627;28;20022;-75
2021/06/18 08:23:02;;;;;;;8.10;3.50;;;;;;;41.07;25.36;98518.59;5008485;28;20506;-75
2021/06/18 08:25:27;;;;;;;5.57;3.50;;;;;;;41.08;25.59;98511.72;5009744;28;20097;-74
2021/06/18 08:27:53;;;;;;;4.45;3.50;;;;;;;41.55;25.17;98517.88;5013611;28;20030;-72
2021/06/18 08:30:19;;;;;;;4.18;3.58;;;;;;;41.39;25.10;98507.00;5012786;28;20124;-75
2021/06/18 08:32:45;;;;;;;6.38;3.58;;;;;;;41.83;25.65;98499.75;5015106;28;20030;-74
2021/06/18 08:35:10;;;;;;;7.55;3.70;;;;;;;41.03;25.60;98461.06;5015714;28;20041;-74
2021/06/18 08:37:36;;;;;;;5.53;3.58;;;;;;;41.80;25.87;98500.59;5014874;28;20025;-75
2021/06/18 08:40:03;;;;;;;7.53;3.15;;;;;;;42.86;24.96;98505.47;5015616;28;20499;-74
2021/06/18 08:42:28;;;;;;;5.07;3.20;;;;;;;42.94;24.67;98497.63;5016118;28;20620;-74
2021/06/18 08:44:54;;;;;;;4.45;3.30;;;;;;;41.67;25.23;98491.00;5014391;28;20021;-73
2021/06/18 08:47:19;;;;;;;8.90;3.53;;;;;;;41.66;25.00;98497.06;5014347;28;20503;-75
2021/06/18 08:49:45;;;;;;;8.07;3.50;;;;;;;41.48;25.42;98498.03;5013312;28;20116;-73
2021/06/18 08:52:10;;;;;;;7.82;3.72;;;;;;;41.83;25.53;98494.06;5014969;28;20036;-75
2021/06/18 08:54:42;;;;;;;5.50;3.42;;;;;;;40.87;26.07;98480.63;5015941;28;20414;-72
2021/06/18 08:57:12;;;;;;;4.38;3.33;;;;;;;41.60;25.41;98499.56;5016471;28;20691;-74
2021/06/18 08:59:38;;;;;;;5.68;3.90;;;;;;;42.21;25.50;98501.78;5014251;28;20562;-74
2021/06/18 09:02:04;;;;;;;3.58;3.22;;;;;;;42.99;24.29;98487.81;5011188;28;20114;-74
2021/06/18 09:04:29;;;;;;;4.50;3.42;;;;;;;42.57;24.95;98492.84;5013724;28;20026;-72
2021/06/18 09:07:00;;;;;;;7.93;3.53;;;;;;;42.82;24.90;98492.56;5012979;28;20030;-75
2021/06/18 09:09:31;;;;;;;4.15;3.20;;;;;;;43.25;24.00;98483.38;5014776;28;20281;-74
2021/06/18 09:11:59;;;;;;;11.25;3.67;;;;;;;43.33;24.55;98491.34;5013762;28;20478;-74
2021/06/18 09:14:29;;;;;;;6.97;3.72;;;;;;;42.39;25.23;98499.56;5012734;28;20026;-75
2021/06/18 09:17:18;;;;;;;7.22;3.38;;;;;;;42.71;24.91;98495.53;5011432;28;20040;-74
2021/06/18 09:19:47;;;;;;;7.68;3.45;;;;;;;42.29;24.78;98483.44;4999559;28;20547;-74
2021/06/18 09:22:20;;;;;;;4.75;3.75;;;;;;;41.83;26.12;98493.25;4998301;28;20021;-74
2021/06/18 09:24:55;;;;;;;6.78;3.80;;;;;;;42.95;24.73;98501.31;4999379;28;20128;-73
2021/06/18 09:27:49;;;;;;;6.25;3.25;;;;;;;42.92;24.89;98497.28;5012876;28;20105;-74
2021/06/18 09:30:31;;;;;;;9.15;3.63;;;;;;;42.65;25.21;98491.53;5003925;28;20045;-73
2021/06/18 09:33:02;;;;;;;5.75;3.50;;;;;;;43.55;24.27;98491.81;5008241;28;20080;-73
2021/06/18 09:35:29;;;;;;;5.88;3.40;;;;;;;42.51;25.69;98497.41;4991508;28;20026;-73
2021/06/18 09:38:03;;;;;;;7.05;3.97;;;;;;;43.55;24.42;98491.81;5003621;28;20317;-73
2021/06/18 09:40:29;;;;;;;4.68;3.50;;;;;;;43.58;24.46;98473.06;5006530;28;20038;-73
2021/06/18 09:42:59;;;;;;;7.95;3.38;;;;;;;42.36;24.77;98491.09;5007453;28;20109;-74
2021/06/18 09:45:35;;;;;;;6.13;3.08;;;;;;;43.43;24.21;98494.47;5008543;28;20064;-73
2021/06/18 09:48:06;;;;;;;8.40;3.25;;;;;;;43.64;24.35;98482.72;4999822;28;20025;-73
2021/06/18 09:50:32;;;;;;;5.43;3.67;;;;;;;43.55;24.09;98485.31;5008766;28;20125;-73
2021/06/18 09:53:19;;;;;;;5.93;3.40;;;;;;;43.60;25.12;98489.72;5007327;28;20112;-71
2021/06/18 09:55:47;;;;;;;5.30;3.30;;;;;;;44.29;23.34;98488.00;5010643;28;20030;-73
2021/06/18 09:58:29;;;;;;;6.03;3.63;;;;;;;42.04;25.70;98458.94;5007183;28;20022;-77
2021/06/18 10:01:17;;;;;;;8.23;3.42;;;;;;;42.36;26.19;98474.84;5006344;28;20045;-76
2021/06/18 10:04:04;;;;;;;7.25;3.60;;;;;;;42.81;25.29;98485.22;5009347;28;20038;-74
2021/06/18 10:06:34;;;;;;;5.93;3.57;;;;;;;42.55;24.89;98486.78;4998570;28;20073;-72
2021/06/18 10:09:01;;;;;;;8.25;3.80;;;;;;;42.95;25.76;98479.34;4999269;28;20056;-74
2021/06/18 10:11:31;;;;;;;8.35;4.05;;;;;;;44.61;23.47;98475.94;5009982;28;20587;-73
2021/06/18 10:13:57;;;;;;;5.28;3.60;;;;;;;43.22;24.35;98478.53;5007140;28;20041;-72
2021/06/18 10:16:23;;;;;;;6.13;3.45;;;;;;;41.85;26.27;98473.75;5007052;28;20030;-74
2021/06/18 10:18:49;;;;;;;4.90;3.70;;;;;;;43.43;25.29;98474.53;5009050;28;20045;-74
2021/06/18 10:21:17;;;;;;;5.40;3.38;;;;;;;43.86;25.22;98466.03;5007148;28;20029;-74
2021/06/18 10:23:44;;;;;;;5.88;3.25;;;;;;;43.72;24.32;98478.50;5004462;28;20022;-73
2021/06/18 10:26:12;;;;;;;3.35;3.05;;;;;;;44.76;22.08;98464.22;4998783;28;20554;-75
2021/06/18 10:28:38;;;;;;;5.00;2.92;;;;;;;44.19;22.02;98458.47;5008442;28;20029;-74
2021/06/18 10:31:07;;;;;;;3.42;2.30;;;;;;;44.09;21.89;98479.44;5008497;28;20445;-74
2021/06/18 10:33:38;;;;;;;4.50;3.00;;;;;;;44.35;22.68;98463.44;5008257;28;20483;-74
2021/06/18 10:36:07;;;;;;;4.32;2.83;;;;;;;43.64;24.12;98465.63;5006329;28;20034;-74
2021/06/18 10:38:34;;;;;;;4.93;2.67;;;;;;;43.16;22.09;98463.16;5008371;28;20714;-74
2021/06/18 10:41:12;;;;;;;4.33;3.07;;;;;;;43.31;23.50;98468.22;5008598;28;20037;-74
2021/06/18 10:43:45;;;;;;;5.65;2.65;;;;;;;44.23;22.49;98466.97;5009239;28;20108;-74
2021/06/18 10:46:14;;;;;;;7.65;3.20;;;;;;;43.18;23.18;98467.22;5006060;28;20080;-73
2021/06/18 10:48:55;;;;;;;3.67;3.10;;;;;;;43.93;21.87;98460.19;5008412;28;20030;-74
2021/06/18 10:51:26;;;;;;;7.20;3.00;;;;;;;42.78;22.16;98455.59;5006906;28;20022;-74
2021/06/18 10:54:36;;;;;;;4.40;2.70;;;;;;;42.50;22.57;98459.63;5014489;28;20041;-74
2021/06/18 10:57:04;;;;;;;3.22;2.55;;;;;;;42.73;22.47;98458.88;5004156;28;20038;-74
2021/06/18 10:59:35;;;;;;;4.03;2.20;;;;;;;43.63;18.87;98452.63;5004949;28;20424;-74
2021/06/18 11:02:26;;;;;;;3.70;1.90;;;;;;;43.50;20.15;98454.47;5009044;28;20065;-74
2021/06/18 11:05:00;;;;;;;3.10;1.92;;;;;;;43.58;19.34;98449.47;5007467;28;20530;-74
2021/06/18 11:07:36;;;;;;;3.47;2.20;;;;;;;44.13;19.53;98442.31;5006291;28;20038;-73
2021/06/18 11:10:12;;;;;;;6.50;2.40;;;;;;;43.44;19.92;98444.78;5008981;28;20124;-73
2021/06/18 11:13:09;;;;;;;3.42;2.40;;;;;;;42.90;20.60;98439.97;5006154;28;20034;-73
2021/06/18 11:15:37;;;;;;;4.82;2.40;;;;;;;41.81;20.63;98441.72;5006808;28;20084;-73
2021/06/18 11:18:18;;;;;;;4.60;2.10;;;;;;;41.97;19.92;98427.75;5002240;28;20113;-74
2021/06/18 11:20:51;;;;;;;5.13;2.17;;;;;;;42.66;18.78;98433.41;5009246;28;20030;-76
2021/06/18 11:23:22;;;;;;;4.00;2.15;;;;;;;42.75;19.42;98436.50;5007153;28;20021;-74
2021/06/18 11:25:53;;;;;;;2.80;1.77;;;;;;;42.78;18.75;98418.59;5009272;28;20080;-73
2021/06/18 11:28:18;;;;;;;3.38;1.63;;;;;;;41.71;19.52;98429.25;5006793;28;20084;-73
2021/06/18 11:30:51;;;;;;;5.90;2.00;;;;;;;41.37;20.00;98420.63;5006866;28;20033;-73
2021/06/18 11:36:22;;;;;;;4.65;2.50;;;;;;;42.41;19.34;98426.03;5008617;28;20034;-73
2021/06/18 11:38:52;;;;;;;1.90;1.70;;;;;;;41.94;19.91;98427.81;5007381;28;20061;-74
2021/06/18 11:41:23;;;;;;;4.43;2.10;;;;;;;41.14;20.54;98419.25;5008448;28;20048;-73